Flight Track Log - Related Links

Times and Time Zones

All times are in EDT time to prevent confusion due to time zone crossing. See the SKW5631 flight status page for this flight to view local times or setup timezone preferences in your user account.

Time Position Orientation Groundspeed Altitude Reporting Facility
EDT Latitude Longitude Course Direction KTS MPH feet Rate Location/Type
Fri 10:14:44 PM 37.6500 -122.3667 122° Southeast 159 183 1,300  Level Northern Cal TRACON
Fri 10:15:44 PM 37.7000 -122.3667 360° North 214 246 3,600 2,316 Climbing Northern Cal TRACON
Fri 10:16:38 PM 37.7167 -122.4333 288° West 265 305 5,700 2,368 Climbing Northern Cal TRACON
Fri 10:17:00 PM 37.2559 -122.0922 130° Southeast  Level FlightAware Approximate
Fri 10:17:38 PM 37.6500 -122.4500 191° South 290 334 8,100  Level Northern Cal TRACON
Fri 10:18:00 PM 37.1545 -121.9615 133° Southeast  Level FlightAware Approximate
Fri 10:19:00 PM 37.0559 -121.8285 122° Southeast  Level FlightAware Approximate
Fri 10:19:01 PM 37.5375 -122.4328 173° South 302 348 11,000  Level Oakland Center
Fri 10:20:02 PM 37.4544 -122.3886 157° South 337 388 13,000 1,770 Climbing Oakland Center
Fri 10:21:03 PM 37.3839 -122.3103 139° Southeast 339 390 14,600 1,721 Climbing Oakland Center
Fri 10:22:04 PM 37.2911 -122.2072 139° Southeast 365 420 16,500 1,721 Climbing Oakland Center
Fri 10:23:05 PM 37.2122 -122.1200 139° Southeast 374 430 18,100 1,512 Climbing Oakland Center
Fri 10:24:07 PM 37.1325 -122.0328 139° Southeast 378 435 19,600 1,415 Climbing Oakland Center
Fri 10:25:08 PM 37.0508 -121.9419 138° Southeast 389 448 21,000 1,230 Climbing Oakland Center
Fri 10:26:09 PM 36.9664 -121.8511 139° Southeast 396 456 22,100 1,033 Climbing Oakland Center
Fri 10:27:10 PM 36.8786 -121.7572 139° Southeast 415 478 23,100 984 Climbing Oakland Center
Fri 10:28:11 PM 36.7967 -121.6667 138° Southeast 416 479 24,100 1,024 Climbing Oakland Center
Fri 10:29:13 PM 36.6889 -121.5519 140° Southeast 425 489 25,200 878 Climbing Oakland Center
Fri 10:30:14 PM 36.5981 -121.4556 140° Southeast 431 496 25,900 689 Climbing Oakland Center
Fri 10:31:15 PM 36.5072 -121.3544 138° Southeast 437 503 26,600 689 Climbing Oakland Center
Fri 10:32:16 PM 36.4156 -121.2533 138° Southeast 440 506 27,300 689 Climbing Oakland Center
Fri 10:33:17 PM 36.3211 -121.1547 140° Southeast 443 510 28,000 683 Climbing Oakland Center
Fri 10:34:19 PM 36.2278 -121.0536 139° Southeast 445 512 28,700 683 Climbing Oakland Center
Fri 10:35:20 PM 36.1339 -120.9542 139° Southeast 445 512 29,400 689 Climbing Oakland Center
Fri 10:36:21 PM 36.0403 -120.8542 139° Southeast 445 512 30,100 639 Climbing Oakland Center
Fri 10:37:22 PM 35.9456 -120.7539 139° Southeast 447 514 30,700 541 Climbing Oakland Center
Fri 10:38:23 PM 35.8514 -120.6544 139° Southeast 447 514 31,200 541 Climbing Oakland Center
Fri 10:39:24 PM 35.7361 -120.5322 139° Southeast 453 521 31,800 537 Climbing Oakland Center
Fri 10:40:26 PM 35.6394 -120.4325 140° Southeast 452 520 32,300 488 Climbing Oakland Center
Fri 10:41:27 PM 35.5436 -120.3308 139° Southeast 451 519 32,800 344 Climbing Oakland Center
Fri 10:42:28 PM 35.4639 -120.2483 140° Southeast 451 519 33,000 92 Climbing Oakland Center
Fri 10:43:38 PM 35.3436 -120.1275 141° Southeast 460 529 33,000 -91 Level Los Angeles Center
Fri 10:44:40 PM 35.2431 -120.0203 139° Southeast 465 535 32,800 -1,415 Descending Los Angeles Center
Fri 10:45:41 PM 35.1236 -119.8975 140° Southeast 467 537 30,100 -2,634 Descending Los Angeles Center
Fri 10:46:43 PM 35.0319 -119.7864 135° Southeast 465 535 27,400 -2,613 Descending Los Angeles Center
Fri 10:47:45 PM 34.9522 -119.6742 131° Southeast 445 512 24,700 -2,400 Descending Los Angeles Center
Fri 10:48:58 PM 34.8722 -119.5669 132° Southeast 433 498 22,000 -2,622 Descending Los Angeles Center
Fri 10:50:00 PM 34.7769 -119.4417 133° Southeast 423 487 18,800 -2,855 Descending Los Angeles Center
Fri 10:51:02 PM 34.7011 -119.3397 132° Southeast 412 474 16,100 -2,613 Descending Los Angeles Center
Fri 10:52:04 PM 34.6169 -119.2283 133° Southeast 393 452 13,400 -2,049 Descending Los Angeles Center
Fri 10:53:05 PM 34.5503 -119.1406 133° Southeast 358 412 11,900 -1,171 Descending Los Angeles Center
Fri 10:54:07 PM 34.4878 -119.0564 132° Southeast 334 384 11,000 -532 Descending Los Angeles Center
Fri 10:55:09 PM 34.4300 -118.9794 132° Southeast 311 358 10,800 -823 Descending Los Angeles Center
Fri 10:56:11 PM 34.3742 -118.9061 133° Southeast 295 339 9,300 -1,463 Descending Los Angeles Center
Fri 10:57:12 PM 34.3256 -118.8331 129° Southeast 277 319 7,800 -1,512 Descending Los Angeles Center
Fri 10:58:14 PM 34.2844 -118.7594 124° Southeast 266 306 6,200 -1,694 Descending Los Angeles Center
Fri 10:59:16 PM 34.2350 -118.6714 124° Southeast 263 303 4,300 -1,258 Descending Los Angeles Center
Fri 11:00:18 PM 34.2028 -118.5994 118° Southeast 254 292 3,600 -667 Descending Los Angeles Center
Fri 11:00:55 PM 34.2000 -118.5500 94° East 214 246 3,200 -495 Descending Southern California TRACON
Fri 11:01:55 PM 34.2000 -118.4833 90° East 171 197 2,800 -650 Descending Southern California TRACON
Fri 11:02:55 PM 34.2000 -118.4333 90° East 147 169 1,900 -842 Descending Southern California TRACON
Fri 11:03:49 PM 34.2000 -118.4000 90° East 153 176 1,200 -600 Descending Southern California TRACON
Fri 11:04:25 PM 34.1986 -118.3683 93° East 160 184 1,000 -333 Descending Los Angeles Center

Login

Don't have an account? Register now (free) for customized features, flight alerts, and more!